createdAt,value
2018-08-10T00:00:41.838Z,17.27
2018-08-10T00:01:41.714Z,19.18
2018-08-10T00:02:41.591Z,17.37
2018-08-10T00:03:41.759Z,17.56
2018-08-10T00:04:41.350Z,17.27
2018-08-10T00:05:41.224Z,15.46
2018-08-10T00:06:41.102Z,14.51
2018-08-10T00:07:40.980Z,14.79
2018-08-10T00:08:40.856Z,15.27
2018-08-10T00:09:40.737Z,15.19
2018-08-10T00:10:40.608Z,14.98
2018-08-10T00:11:40.485Z,14.61
2018-08-10T00:12:40.362Z,14.70
2018-08-10T00:13:40.241Z,14.70
2018-08-10T00:14:40.119Z,14.90
2018-08-10T00:15:39.993Z,15.75
2018-08-10T00:16:39.873Z,14.70
2018-08-10T00:17:39.750Z,14.51
2018-08-10T00:18:39.627Z,13.85
2018-08-10T00:19:39.504Z,13.46
2018-08-10T00:20:39.382Z,15.75
2018-08-10T00:21:39.259Z,17.95
2018-08-10T00:22:39.134Z,18.91
2018-08-10T00:23:39.015Z,18.24
2018-08-10T00:24:38.890Z,17.00
2018-08-10T00:25:38.770Z,15.47
2018-08-10T00:26:38.647Z,16.04
2018-08-10T00:27:38.522Z,15.75
2018-08-10T00:28:38.400Z,14.80
2018-08-10T00:29:38.281Z,15.09
2018-08-10T00:30:38.158Z,16.33
2018-08-10T00:31:38.037Z,15.95
2018-08-10T00:32:37.911Z,15.28
2018-08-10T00:33:37.787Z,14.42
2018-08-10T00:34:37.675Z,15.66
2018-08-10T00:35:37.542Z,16.04
2018-08-10T00:36:37.420Z,17.29
2018-08-10T00:37:37.300Z,17.38
2018-08-10T00:38:37.177Z,16.04
2018-08-10T00:39:37.054Z,16.33
2018-08-10T00:40:36.932Z,16.33
2018-08-10T00:41:36.809Z,17.76
2018-08-10T00:42:36.686Z,19.86
2018-08-10T00:43:36.564Z,19.57
2018-08-10T00:44:36.445Z,18.05
2018-08-10T00:45:36.320Z,16.81
2018-08-10T00:46:36.197Z,15.85
2018-08-10T00:47:36.078Z,20.06
2018-08-10T00:48:35.952Z,20.92
2018-08-10T00:49:35.829Z,21.39
2018-08-10T00:50:35.706Z,19.96
2018-08-10T00:51:35.588Z,19.57
2018-08-10T00:52:35.463Z,19.96
2018-08-10T00:53:35.342Z,20.43
2018-08-10T00:54:35.218Z,21.11
2018-08-10T00:55:35.099Z,21.68
2018-08-10T00:56:34.977Z,21.59
2018-08-10T00:57:34.854Z,23.50
2018-08-10T00:58:34.735Z,25.03
2018-08-10T00:59:34.607Z,25.70
2018-08-10T01:00:34.486Z,25.80
2018-08-10T01:01:34.369Z,27.42
2018-08-10T01:02:34.240Z,28.38
2018-08-10T01:03:34.120Z,30.86
2018-08-10T01:04:33.998Z,32.68
2018-08-10T01:05:33.877Z,33.06
2018-08-10T01:06:33.754Z,34.01
2018-08-10T01:07:33.629Z,34.11
2018-08-10T01:08:33.509Z,34.40
2018-08-10T01:09:33.387Z,36.02
2018-08-10T01:10:33.269Z,36.98
2018-08-10T01:11:33.139Z,36.41
2018-08-10T01:12:33.023Z,36.79
2018-08-10T01:13:33.014Z,38.98
2018-08-10T01:14:32.773Z,40.61
2018-08-10T01:15:32.652Z,41.47
2018-08-10T01:16:32.532Z,39.84
2018-08-10T01:17:32.408Z,40.32
2018-08-10T01:18:32.287Z,42.43
2018-08-10T01:19:32.166Z,45.39
2018-08-10T01:20:32.040Z,47.30
2018-08-10T01:21:31.915Z,45.96
2018-08-10T01:22:31.795Z,47.32
2018-08-10T01:23:31.672Z,46.37
2018-08-10T01:24:31.550Z,44.07
2018-08-10T01:25:31.430Z,44.74
2018-08-10T01:26:31.305Z,44.17
2018-08-10T01:27:31.185Z,47.99
2018-08-10T01:28:31.167Z,48.66
2018-08-10T01:29:30.943Z,51.81
2018-08-10T01:30:30.822Z,49.62
2018-08-10T01:31:30.695Z,46.94
2018-08-10T01:32:30.575Z,47.71
2018-08-10T01:33:30.449Z,51.05
2018-08-10T01:34:30.326Z,50.19
2018-08-10T01:35:30.209Z,50.00
2018-08-10T01:36:30.087Z,50.76
2018-08-10T01:37:29.964Z,50.67
2018-08-10T01:38:29.841Z,49.71
2018-08-10T01:39:29.718Z,49.33
2018-08-10T01:40:29.601Z,48.28
2018-08-10T01:41:29.476Z,48.28
2018-08-10T01:42:29.352Z,51.81
2018-08-10T01:43:29.229Z,54.59
2018-08-10T01:44:29.108Z,56.98
2018-08-10T01:45:28.988Z,54.21
2018-08-10T01:46:28.866Z,54.78
2018-08-10T01:47:28.743Z,56.69
2018-08-10T01:48:28.622Z,58.22
2018-08-10T01:49:28.505Z,55.26
2018-08-10T01:50:28.375Z,55.26
2018-08-10T01:51:28.258Z,53.82
2018-08-10T01:52:28.134Z,54.59
2018-08-10T01:53:28.014Z,53.25
2018-08-10T01:54:27.894Z,53.44
2018-08-10T01:55:27.767Z,50.48
2018-08-10T01:56:27.645Z,49.04
2018-08-10T01:57:27.526Z,48.18
2018-08-10T01:58:27.401Z,48.09
2018-08-10T01:59:27.279Z,49.80
2018-08-10T02:00:27.773Z,51.43
2018-08-10T02:01:27.039Z,49.33
2018-08-10T02:02:26.913Z,49.14
2018-08-10T02:03:26.792Z,48.57
2018-08-10T02:04:26.671Z,45.70
2018-08-10T02:05:26.549Z,45.12
2018-08-10T02:06:26.427Z,43.21
2018-08-10T02:07:26.305Z,42.73
2018-08-10T02:08:26.185Z,44.17
2018-08-10T02:09:26.066Z,46.94
2018-08-10T02:10:25.939Z,48.18
2018-08-10T02:11:25.817Z,50.76
2018-08-10T02:12:25.695Z,50.67
2018-08-10T02:13:25.573Z,50.57
2018-08-10T02:14:25.459Z,48.38
2018-08-10T02:15:25.331Z,49.33
2018-08-10T02:16:25.209Z,50.38
2018-08-10T02:17:25.088Z,52.29
2018-08-10T02:18:24.965Z,51.43
2018-08-10T02:19:24.839Z,51.91
2018-08-10T02:20:24.722Z,51.53
2018-08-10T02:21:24.598Z,51.15
2018-08-10T02:22:24.477Z,51.15
2018-08-10T02:23:24.353Z,50.38
2018-08-10T02:24:24.240Z,49.52
2018-08-10T02:25:24.113Z,47.42
2018-08-10T02:26:23.989Z,47.03
2018-08-10T02:27:23.866Z,43.21
2018-08-10T02:28:23.750Z,43.69
2018-08-10T02:29:23.773Z,44.93
2018-08-10T02:30:23.501Z,45.22
2018-08-10T02:31:23.379Z,46.37
2018-08-10T02:32:23.261Z,49.14
2018-08-10T02:33:23.137Z,47.71
2018-08-10T02:34:23.015Z,49.04
2018-08-10T02:35:22.894Z,48.57
2018-08-10T02:36:22.771Z,48.66
2018-08-10T02:37:22.656Z,48.66
2018-08-10T02:38:22.527Z,48.95
2018-08-10T02:39:22.406Z,49.14
2018-08-10T02:40:22.285Z,47.61
2018-08-10T02:41:22.163Z,49.90
2018-08-10T02:42:22.043Z,52.87
2018-08-10T02:43:21.924Z,47.03
2018-08-10T02:44:21.797Z,40.03
2018-08-10T02:45:21.676Z,36.02
2018-08-10T02:46:21.555Z,32.58
2018-08-10T02:47:21.431Z,28.09
2018-08-10T02:48:21.315Z,24.46
2018-08-10T02:49:21.189Z,22.07
2018-08-10T02:50:21.068Z,20.06
2018-08-10T02:51:20.945Z,18.52
2018-08-10T02:52:20.824Z,17.49
2018-08-10T02:53:20.705Z,16.05
2018-08-10T02:54:20.580Z,17.10
2018-08-10T02:55:20.458Z,16.72
2018-08-10T02:56:20.338Z,15.48
2018-08-10T02:57:20.217Z,14.72
2018-08-10T02:58:20.093Z,14.23
2018-08-10T02:59:19.970Z,17.39
2018-08-10T03:00:19.849Z,21.02
2018-08-10T03:01:19.729Z,26.09
2018-08-10T03:02:19.607Z,29.05
2018-08-10T03:03:19.484Z,30.29
2018-08-10T03:04:19.373Z,32.87
2018-08-10T03:05:19.241Z,30.00
2018-08-10T03:06:19.116Z,27.90
2018-08-10T03:07:18.996Z,27.23
2018-08-10T03:08:18.873Z,26.18
2018-08-10T03:09:18.752Z,28.09
2018-08-10T03:10:18.630Z,27.90
2018-08-10T03:11:18.509Z,25.42
2018-08-10T03:12:18.388Z,23.12
2018-08-10T03:13:18.266Z,21.21
2018-08-10T03:14:18.141Z,20.45
2018-08-10T03:15:18.021Z,24.55
2018-08-10T03:16:17.905Z,25.51
2018-08-10T03:17:17.774Z,24.27
2018-08-10T03:18:17.654Z,24.94
2018-08-10T03:19:17.533Z,22.93
2018-08-10T03:20:17.407Z,20.06
2018-08-10T03:21:17.290Z,18.06
2018-08-10T03:22:17.183Z,17.20
2018-08-10T03:23:17.044Z,16.34
2018-08-10T03:24:16.919Z,19.20
2018-08-10T03:25:16.797Z,17.10
2018-08-10T03:26:16.677Z,15.77
2018-08-10T03:27:16.553Z,16.14
2018-08-10T03:28:16.431Z,18.06
2018-08-10T03:29:16.309Z,19.40
2018-08-10T03:30:16.189Z,19.20
2018-08-10T03:31:16.062Z,20.83
2018-08-10T03:32:15.941Z,23.03
2018-08-10T03:33:15.817Z,23.60
2018-08-10T03:34:15.693Z,23.50
2018-08-10T03:35:15.574Z,24.94
2018-08-10T03:36:15.452Z,24.65
2018-08-10T03:37:15.328Z,25.51
2018-08-10T03:38:15.205Z,24.74
2018-08-10T03:39:15.088Z,25.23
2018-08-10T03:40:14.961Z,26.29
2018-08-10T03:41:14.881Z,25.04
2018-08-10T03:42:14.714Z,24.38
2018-08-10T03:43:14.593Z,25.33
2018-08-10T03:44:14.473Z,28.57
2018-08-10T03:45:14.352Z,29.24
2018-08-10T03:46:14.230Z,26.56
2018-08-10T03:47:14.108Z,23.69
2018-08-10T03:48:13.982Z,20.35
2018-08-10T03:49:13.859Z,17.49
2018-08-10T03:50:13.742Z,15.57
2018-08-10T03:51:13.616Z,13.37
2018-08-10T03:52:13.493Z,12.61
2018-08-10T03:53:13.370Z,12.51
2018-08-10T03:54:15.827Z,13.37
2018-08-10T03:55:13.124Z,13.95
2018-08-10T03:56:13.051Z,14.14
2018-08-10T03:57:13.808Z,13.66
2018-08-10T03:58:12.760Z,15.67
2018-08-10T03:59:12.638Z,18.63
2018-08-10T04:00:12.526Z,18.54
2018-08-10T04:01:14.334Z,19.20
2018-08-10T04:02:12.273Z,17.10
2018-08-10T04:03:12.150Z,15.48
2018-08-10T04:04:12.029Z,15.86
2018-08-10T04:05:11.907Z,17.00
2018-08-10T04:06:11.782Z,17.39
2018-08-10T04:07:11.662Z,17.29
2018-08-10T04:08:11.540Z,18.91
2018-08-10T04:09:11.418Z,19.20
2018-08-10T04:10:11.293Z,19.30
2018-08-10T04:11:11.174Z,18.44
2018-08-10T04:12:11.053Z,18.35
2018-08-10T04:13:10.930Z,17.20
2018-08-10T04:14:10.811Z,15.77
2018-08-10T04:15:10.684Z,15.29
2018-08-10T04:16:10.563Z,13.95
2018-08-10T04:17:10.444Z,13.28
2018-08-10T04:18:10.319Z,13.85
2018-08-10T04:19:10.197Z,13.28
2018-08-10T04:20:10.079Z,11.55
2018-08-10T04:21:09.957Z,11.27
2018-08-10T04:22:09.833Z,10.69
2018-08-10T04:23:09.708Z,10.79
2018-08-10T04:24:09.593Z,9.45
2018-08-10T04:25:09.469Z,9.08
2018-08-10T04:26:09.822Z,9.94
2018-08-10T04:27:09.219Z,10.70
2018-08-10T04:28:09.100Z,11.08
2018-08-10T04:29:08.978Z,10.99
2018-08-10T04:30:08.855Z,10.99
2018-08-10T04:31:08.732Z,11.08
2018-08-10T04:32:08.611Z,11.75
2018-08-10T04:33:08.495Z,12.51
2018-08-10T04:34:08.363Z,12.80
2018-08-10T04:35:08.246Z,12.23
2018-08-10T04:36:08.121Z,10.99
2018-08-10T04:37:07.999Z,10.51
2018-08-10T04:38:07.877Z,10.41
2018-08-10T04:39:07.755Z,10.51
2018-08-10T04:40:07.631Z,10.22
2018-08-10T04:41:07.510Z,11.27
2018-08-10T04:42:07.387Z,11.18
2018-08-10T04:43:07.266Z,11.18
2018-08-10T04:44:07.146Z,12.51
2018-08-10T04:45:07.025Z,13.38
2018-08-10T04:46:06.902Z,13.95
2018-08-10T04:47:06.777Z,14.33
2018-08-10T04:48:06.697Z,15.19
2018-08-10T04:49:06.534Z,15.87
2018-08-10T04:50:06.410Z,15.67
2018-08-10T04:51:06.289Z,14.43
2018-08-10T04:52:06.166Z,12.62
2018-08-10T04:53:06.048Z,10.03
2018-08-10T04:54:05.922Z,8.41
2018-08-10T04:55:05.839Z,7.55
2018-08-10T04:56:05.678Z,6.59
2018-08-10T04:57:05.565Z,5.54
2018-08-10T04:58:05.435Z,4.68
2018-08-10T04:59:05.311Z,4.30
2018-08-10T05:00:05.194Z,3.82
2018-08-10T05:01:05.068Z,3.25
2018-08-10T05:02:04.944Z,2.96
2018-08-10T05:03:04.823Z,2.67
2018-08-10T05:04:04.702Z,2.20
2018-08-10T05:05:04.579Z,1.53
2018-08-10T05:06:04.455Z,1.53
2018-08-10T05:07:04.337Z,1.05
2018-08-10T05:08:04.214Z,0.85
2018-08-10T05:09:04.093Z,0.67
2018-08-10T05:10:03.968Z,0.95
2018-08-10T05:11:03.850Z,0.67
2018-08-10T05:12:03.724Z,1.05
2018-08-10T05:13:05.009Z,0.95
2018-08-10T05:14:03.479Z,0.85
2018-08-10T05:15:03.354Z,0.95
2018-08-10T05:16:03.233Z,1.14
2018-08-10T05:17:03.113Z,1.43
2018-08-10T05:18:02.994Z,0.95
2018-08-10T05:19:02.868Z,1.05
2018-08-10T05:20:02.744Z,1.43
2018-08-10T05:21:02.623Z,1.72
2018-08-10T05:22:02.501Z,2.00
2018-08-10T05:23:02.378Z,2.10
2018-08-10T05:24:02.254Z,2.67
2018-08-10T05:25:02.135Z,3.63
2018-08-10T05:26:02.022Z,4.77
2018-08-10T05:27:01.887Z,5.63
2018-08-10T05:28:01.765Z,7.45
2018-08-10T05:29:01.643Z,9.55
2018-08-10T05:30:01.523Z,10.03
2018-08-10T05:31:01.402Z,10.03
2018-08-10T05:32:01.278Z,10.41
2018-08-10T05:33:01.156Z,10.99
2018-08-10T05:34:01.033Z,11.46
2018-08-10T05:35:00.919Z,12.13
2018-08-10T05:36:00.791Z,13.57
2018-08-10T05:37:00.670Z,15.19
2018-08-10T05:38:00.549Z,14.15
2018-08-10T05:39:00.430Z,11.47
2018-08-10T05:40:00.302Z,9.66
2018-08-10T05:41:00.179Z,9.08
2018-08-10T05:42:00.061Z,7.84
2018-08-10T05:42:59.945Z,6.98
2018-08-10T05:43:59.876Z,5.73
2018-08-10T05:44:59.691Z,5.16
2018-08-10T05:45:59.569Z,4.20
2018-08-10T05:46:59.521Z,3.91
2018-08-10T05:47:59.367Z,2.67
2018-08-10T05:48:59.205Z,2.48
2018-08-10T05:49:59.084Z,3.44
2018-08-10T05:50:58.983Z,3.25
2018-08-10T05:51:58.837Z,3.63
2018-08-10T05:52:58.715Z,4.20
2018-08-10T05:53:58.593Z,4.20
2018-08-10T05:54:58.470Z,3.72
2018-08-10T05:55:58.344Z,3.34
2018-08-10T05:56:58.223Z,2.58
2018-08-10T05:57:58.102Z,1.91
2018-08-10T05:58:57.979Z,1.53
2018-08-10T05:59:57.857Z,1.81
2018-08-10T06:00:57.736Z,1.62
2018-08-10T06:01:57.618Z,2.10
2018-08-10T06:02:57.491Z,2.00
2018-08-10T06:03:57.488Z,1.91
2018-08-10T06:04:57.246Z,2.20
2018-08-10T06:05:57.126Z,2.67
2018-08-10T06:06:57.005Z,2.67
2018-08-10T06:07:56.880Z,2.86
2018-08-10T06:08:56.757Z,3.25
2018-08-10T06:09:56.639Z,4.39
2018-08-10T06:10:56.512Z,4.77
2018-08-10T06:11:56.391Z,4.77
2018-08-10T06:12:56.269Z,4.77
2018-08-10T06:13:56.148Z,5.16
2018-08-10T06:14:56.026Z,5.44
2018-08-10T06:15:55.901Z,8.89
2018-08-10T06:16:55.778Z,9.45
2018-08-10T06:17:55.654Z,9.55
2018-08-10T06:18:55.534Z,10.13
2018-08-10T06:19:55.471Z,9.55
2018-08-10T06:20:55.291Z,9.74
2018-08-10T06:21:55.166Z,10.13
2018-08-10T06:22:55.906Z,10.31
2018-08-10T06:23:54.977Z,9.74
2018-08-10T06:24:54.848Z,9.84
2018-08-10T06:25:54.679Z,14.52
2018-08-10T06:26:54.557Z,22.55
2018-08-10T06:27:54.484Z,21.02
2018-08-10T06:28:54.313Z,19.11
2018-08-10T06:29:54.194Z,18.15
2018-08-10T06:30:54.070Z,16.24
2018-08-10T06:31:53.948Z,15.95
2018-08-10T06:32:53.827Z,17.77
2018-08-10T06:33:53.785Z,20.06
2018-08-10T06:34:53.583Z,21.50
2018-08-10T06:35:53.460Z,24.74
2018-08-10T06:36:53.341Z,27.14
2018-08-10T06:37:53.214Z,28.28
2018-08-10T06:38:53.093Z,28.00
2018-08-10T06:39:52.997Z,25.13
2018-08-10T06:40:52.852Z,22.17
2018-08-10T06:41:52.731Z,22.93
2018-08-10T06:42:52.611Z,22.45
2018-08-10T06:43:52.484Z,22.64
2018-08-10T06:44:52.403Z,21.50
2018-08-10T06:45:52.243Z,20.46
2018-08-10T06:46:52.119Z,19.68
2018-08-10T06:47:51.995Z,20.26
2018-08-10T06:48:51.872Z,18.06
2018-08-10T06:49:51.752Z,16.05
2018-08-10T06:50:51.627Z,15.09
2018-08-10T06:51:51.873Z,11.84
2018-08-10T06:52:51.385Z,8.12
2018-08-10T06:53:51.262Z,7.35
2018-08-10T06:54:52.872Z,6.49
2018-08-10T06:55:51.057Z,5.44
2018-08-10T06:56:50.898Z,4.58
2018-08-10T06:57:50.770Z,4.20
2018-08-10T06:58:50.649Z,3.53
2018-08-10T06:59:50.528Z,2.67
2018-08-10T07:00:50.440Z,2.67
2018-08-10T07:01:50.284Z,2.10
2018-08-10T07:02:50.159Z,2.00
2018-08-10T07:03:50.041Z,2.00
2018-08-10T07:04:49.916Z,2.29
2018-08-10T07:05:49.793Z,2.10
2018-08-10T07:06:49.670Z,2.67
2018-08-10T07:07:49.612Z,2.39
2018-08-10T07:08:49.425Z,2.76
2018-08-10T07:09:49.302Z,3.53
2018-08-10T07:10:49.181Z,4.20
2018-08-10T07:11:49.059Z,5.73
2018-08-10T07:12:48.951Z,6.30
2018-08-10T07:13:48.813Z,6.59
2018-08-10T07:14:48.691Z,7.73
2018-08-10T07:15:48.577Z,7.54
2018-08-10T07:16:48.449Z,6.97
2018-08-10T07:17:48.324Z,6.02
2018-08-10T07:18:48.200Z,5.35
2018-08-10T07:19:48.080Z,5.25
2018-08-10T07:20:47.954Z,5.92
2018-08-10T07:21:47.833Z,6.88
2018-08-10T07:22:47.711Z,8.12
2018-08-10T07:23:47.592Z,10.22
2018-08-10T07:24:47.473Z,12.41
2018-08-10T07:25:47.344Z,12.23
2018-08-10T07:26:47.222Z,12.13
2018-08-10T07:27:47.097Z,13.94
2018-08-10T07:28:46.976Z,17.00
2018-08-10T07:29:46.850Z,21.39
2018-08-10T07:30:46.728Z,19.29
2018-08-10T07:31:46.607Z,19.10
2018-08-10T07:32:46.486Z,19.10
2018-08-10T07:33:46.360Z,16.71
2018-08-10T07:34:46.241Z,14.42
2018-08-10T07:35:46.114Z,19.77
2018-08-10T07:36:45.993Z,22.44
2018-08-10T07:37:45.875Z,24.07
2018-08-10T07:38:45.749Z,35.80
2018-08-10T07:39:45.627Z,35.89
2018-08-10T07:40:45.508Z,35.51
2018-08-10T07:41:45.380Z,31.99
2018-08-10T07:42:45.258Z,26.55
2018-08-10T07:43:45.136Z,27.98
2018-08-10T07:44:45.008Z,24.54
2018-08-10T07:45:44.887Z,25.02
2018-08-10T07:46:44.766Z,25.21
2018-08-10T07:47:44.642Z,36.58
2018-08-10T07:48:44.519Z,37.24
2018-08-10T07:49:44.396Z,30.66
2018-08-10T07:50:44.276Z,40.20
2018-08-10T07:51:44.267Z,47.85
2018-08-10T07:52:44.030Z,53.08
2018-08-10T07:53:43.908Z,44.87
2018-08-10T07:54:43.782Z,36.66
2018-08-10T07:55:43.660Z,44.77
2018-08-10T07:56:43.536Z,39.14
2018-08-10T07:57:43.415Z,33.79
2018-08-10T07:58:43.298Z,24.91
2018-08-10T07:59:43.173Z,23.58
2018-08-10T08:00:43.045Z,20.14
2018-08-10T08:01:42.924Z,21.57
2018-08-10T08:02:42.804Z,19.38
2018-08-10T08:03:42.678Z,14.22
2018-08-10T08:04:42.556Z,20.72
2018-08-10T08:05:42.433Z,22.72
2018-08-10T08:06:43.727Z,19.47
2018-08-10T08:07:42.188Z,21.09
2018-08-10T08:08:42.065Z,19.38
2018-08-10T08:09:41.971Z,17.18
2018-08-10T08:10:41.820Z,14.12
2018-08-10T08:11:41.699Z,15.66
2018-08-10T08:12:41.579Z,21.01
2018-08-10T08:13:41.473Z,24.35
2018-08-10T08:14:41.329Z,31.04
2018-08-10T08:15:41.205Z,29.32
2018-08-10T08:16:41.084Z,29.61
2018-08-10T08:17:40.959Z,34.09
2018-08-10T08:18:40.843Z,35.24
2018-08-10T08:19:40.820Z,39.54
2018-08-10T08:20:40.593Z,43.07
2018-08-10T08:21:40.468Z,43.05
2018-08-10T08:22:40.347Z,53.74
2018-08-10T08:23:40.224Z,46.39
2018-08-10T08:24:40.100Z,65.93
2018-08-10T08:25:39.976Z,57.24
2018-08-10T08:26:39.855Z,46.47
2018-08-10T08:27:39.733Z,50.18
2018-08-10T08:28:39.611Z,45.42
2018-08-10T08:29:39.861Z,46.66
2018-08-10T08:30:39.363Z,40.83
2018-08-10T08:31:41.915Z,40.64
2018-08-10T08:32:39.952Z,38.35
2018-08-10T08:33:39.052Z,35.32
2018-08-10T08:34:38.886Z,54.13
2018-08-10T08:35:38.749Z,59.28
2018-08-10T08:36:39.940Z,52.88
2018-08-10T08:37:38.507Z,46.58
2018-08-10T08:38:38.384Z,44.20
2018-08-10T08:39:38.256Z,40.66
2018-08-10T08:40:38.138Z,47.44
2018-08-10T08:41:38.012Z,53.27
2018-08-10T08:42:45.481Z,53.84
2018-08-10T08:43:37.765Z,54.70
2018-08-10T08:44:37.649Z,57.18
2018-08-10T08:45:38.437Z,54.53
2018-08-10T08:46:37.639Z,50.52
2018-08-10T08:47:37.276Z,53.65
2018-08-10T08:48:37.899Z,63.57
2018-08-10T08:49:37.026Z,64.43
2018-08-10T08:50:36.905Z,56.99
2018-08-10T08:51:38.478Z,70.16
2018-08-10T08:52:36.660Z,57.06
2018-08-10T08:53:36.539Z,54.41
2018-08-10T08:54:36.412Z,52.50
2018-08-10T08:55:36.290Z,58.70
2018-08-10T08:56:36.168Z,53.93
2018-08-10T08:57:36.046Z,70.83
2018-08-10T08:58:35.923Z,81.85
2018-08-10T08:59:35.811Z,78.31
2018-08-10T09:00:36.411Z,73.63
2018-08-10T09:01:37.000Z,82.42
2018-08-10T09:02:35.705Z,81.85
2018-08-10T09:03:35.309Z,72.97
2018-08-10T09:04:35.910Z,70.87
2018-08-10T09:05:35.207Z,68.67
2018-08-10T09:06:35.012Z,71.92
2018-08-10T09:07:35.551Z,63.96
2018-08-10T09:08:34.696Z,57.11
2018-08-10T09:09:35.571Z,53.20
2018-08-10T09:10:34.449Z,64.47
2018-08-10T09:11:34.328Z,61.79
2018-08-10T09:12:34.206Z,67.43
2018-08-10T09:13:34.082Z,59.59
2018-08-10T09:14:33.960Z,61.89
2018-08-10T09:15:33.843Z,64.47
2018-08-10T09:16:33.760Z,66.66
2018-08-10T09:17:34.529Z,70.77
2018-08-10T09:18:33.468Z,68.67
2018-08-10T09:19:33.380Z,69.62
2018-08-10T09:20:33.226Z,69.05
2018-08-10T09:21:33.100Z,68.38
2018-08-10T09:22:32.976Z,80.61
2018-08-10T09:23:32.853Z,74.11
2018-08-10T09:24:32.734Z,78.89
2018-08-10T09:25:32.614Z,77.94
2018-08-10T09:26:33.416Z,67.05
2018-08-10T09:27:32.367Z,66.38
2018-08-10T09:28:32.246Z,73.54
2018-08-10T09:29:32.578Z,70.87
2018-08-10T09:30:32.004Z,74.69
2018-08-10T09:31:31.877Z,61.98
2018-08-10T09:32:31.753Z,63.32
2018-08-10T09:33:31.628Z,56.99
2018-08-10T09:34:31.980Z,46.68
2018-08-10T09:35:31.383Z,48.88
2018-08-10T09:36:31.922Z,53.77
2018-08-10T09:37:31.159Z,68.67
2018-08-10T09:38:31.021Z,66.00
2018-08-10T09:39:30.898Z,69.82
2018-08-10T09:40:32.079Z,66.19
2018-08-10T09:41:31.425Z,65.90
2018-08-10T09:42:30.524Z,55.68
2018-08-10T09:43:30.403Z,51.12
2018-08-10T09:44:30.282Z,53.80
2018-08-10T09:45:30.226Z,59.63
2018-08-10T09:46:30.059Z,65.14
2018-08-10T09:47:29.915Z,63.60
2018-08-10T09:48:29.791Z,54.82
2018-08-10T09:49:29.681Z,54.44
2018-08-10T09:50:29.730Z,53.39
2018-08-10T09:51:29.436Z,54.25
2018-08-10T09:52:29.301Z,53.20
2018-08-10T09:53:29.175Z,61.25
2018-08-10T09:54:29.061Z,57.14
2018-08-10T09:55:28.931Z,50.16
2018-08-10T09:56:28.808Z,67.55
2018-08-10T09:57:29.735Z,62.59
2018-08-10T09:58:28.575Z,68.41
2018-08-10T09:59:28.442Z,65.36
2018-08-10T10:00:28.324Z,59.72
2018-08-10T10:01:28.196Z,65.93
2018-08-10T10:02:28.073Z,68.32
2018-08-10T10:03:27.949Z,67.08
2018-08-10T10:04:27.830Z,71.19
2018-08-10T10:05:27.706Z,71.57
2018-08-10T10:06:27.585Z,74.53
2018-08-10T10:07:27.463Z,79.60
2018-08-10T10:08:27.338Z,77.78
2018-08-10T10:09:27.220Z,71.09
2018-08-10T10:10:27.096Z,74.24
2018-08-10T10:11:27.045Z,73.67
2018-08-10T10:12:26.854Z,69.56
2018-08-10T10:13:26.727Z,66.99
2018-08-10T10:14:26.653Z,69.85
2018-08-10T10:15:26.527Z,64.22
2018-08-10T10:16:26.361Z,62.59
2018-08-10T10:17:26.347Z,60.10
2018-08-10T10:18:26.185Z,67.18
2018-08-10T10:19:26.048Z,61.92
2018-08-10T10:20:25.873Z,71.25
2018-08-10T10:21:25.747Z,61.60
2018-08-10T10:22:25.624Z,56.06
2018-08-10T10:23:25.502Z,56.92
2018-08-10T10:24:25.541Z,58.73
2018-08-10T10:25:25.257Z,58.26
2018-08-10T10:26:25.133Z,46.89
2018-08-10T10:27:25.068Z,42.02
2018-08-10T10:28:24.895Z,51.48
2018-08-10T10:29:24.767Z,54.53
2018-08-10T10:30:24.649Z,71.72
2018-08-10T10:31:24.524Z,56.54
2018-08-10T10:32:24.442Z,55.11
2018-08-10T10:33:24.281Z,61.60
2018-08-10T10:34:24.156Z,59.91
2018-08-10T10:35:24.047Z,72.05
2018-08-10T10:36:23.912Z,69.18
2018-08-10T10:37:23.791Z,68.61
2018-08-10T10:38:23.669Z,65.55
2018-08-10T10:39:23.548Z,86.57
2018-08-10T10:40:24.313Z,82.98
2018-08-10T10:41:23.562Z,85.47
2018-08-10T10:42:23.182Z,85.47
2018-08-10T10:43:23.059Z,97.23
2018-08-10T10:44:24.429Z,93.69
2018-08-10T10:45:23.013Z,94.65
2018-08-10T10:46:22.695Z,98.85
2018-08-10T10:47:22.623Z,99.52
2018-08-10T10:48:22.447Z,97.80
2018-08-10T10:49:22.330Z,95.22
2018-08-10T10:50:22.203Z,94.89
2018-08-10T10:51:22.134Z,83.08
2018-08-10T10:52:21.970Z,87.00
2018-08-10T10:53:21.838Z,85.57
2018-08-10T10:54:21.715Z,93.31
2018-08-10T10:55:21.650Z,88.77
2018-08-10T10:56:21.476Z,85.94
2018-08-10T10:57:21.347Z,97.47
2018-08-10T10:58:21.258Z,80.46
2018-08-10T10:59:21.105Z,81.13
2018-08-10T11:00:21.940Z,81.89
2018-08-10T11:01:20.860Z,94.31
2018-08-10T11:02:20.739Z,99.14
2018-08-10T11:03:20.620Z,93.88
2018-08-10T11:04:20.493Z,93.07
2018-08-10T11:05:20.375Z,90.49
2018-08-10T11:06:20.323Z,92.64
2018-08-10T11:07:20.128Z,94.17
2018-08-10T11:08:20.005Z,96.08
2018-08-10T11:09:19.892Z,91.78
2018-08-10T11:10:19.764Z,93.45
2018-08-10T11:11:19.644Z,91.06
2018-08-10T11:12:19.516Z,91.06
2018-08-10T11:13:19.394Z,94.02
2018-08-10T11:14:19.956Z,92.69
2018-08-10T11:15:19.150Z,88.87
2018-08-10T11:16:19.031Z,90.11
2018-08-10T11:17:18.907Z,98.33
2018-08-10T11:18:18.784Z,93.84
2018-08-10T11:19:19.444Z,88.68
2018-08-10T11:20:18.541Z,84.95
2018-08-10T11:21:18.440Z,89.49
2018-08-10T11:22:18.293Z,81.41
2018-08-10T11:23:18.172Z,78.83
2018-08-10T11:24:21.024Z,76.25
2018-08-10T11:25:18.286Z,81.41
2018-08-10T11:26:17.806Z,83.90
2018-08-10T11:27:17.683Z,87.05
2018-08-10T11:28:17.562Z,79.50
2018-08-10T11:29:17.437Z,72.43
2018-08-10T11:30:17.651Z,83.99
2018-08-10T11:31:18.356Z,85.52
2018-08-10T11:32:17.272Z,85.62
2018-08-10T11:33:17.172Z,89.82
2018-08-10T11:34:16.826Z,90.30
2018-08-10T11:35:16.707Z,87.43
2018-08-10T11:36:19.538Z,88.68
2018-08-10T11:37:16.910Z,86.86
2018-08-10T11:38:17.754Z,89.73
2018-08-10T11:39:23.672Z,91.20
2018-08-10T11:40:17.718Z,90.44
2018-08-10T11:41:15.969Z,94.02
2018-08-10T11:42:15.847Z,83.08
2018-08-10T11:43:16.071Z,87.29
2018-08-10T11:44:15.610Z,87.91
2018-08-10T11:45:15.480Z,88.10
2018-08-10T11:46:15.357Z,89.63
2018-08-10T11:47:15.237Z,91.16
2018-08-10T11:48:15.121Z,93.26
2018-08-10T11:49:14.991Z,97.37
2018-08-10T11:50:14.872Z,88.01
2018-08-10T11:51:14.750Z,82.08
2018-08-10T11:52:14.628Z,85.24
2018-08-10T11:53:14.503Z,83.23
2018-08-10T11:54:14.384Z,82.94
2018-08-10T11:55:14.256Z,83.80
2018-08-10T11:56:14.135Z,77.97
2018-08-10T11:57:14.057Z,94.60
2018-08-10T11:58:13.892Z,89.25
2018-08-10T11:59:13.769Z,91.25
2018-08-10T12:00:14.294Z,87.43
2018-08-10T12:01:13.527Z,82.08
2018-08-10T12:02:13.523Z,88.39
2018-08-10T12:03:14.565Z,91.35
2018-08-10T12:04:13.163Z,89.06
2018-08-10T12:05:13.036Z,89.15
2018-08-10T12:06:12.960Z,92.69
2018-08-10T12:07:13.066Z,90.11
2018-08-10T12:08:12.673Z,90.64
2018-08-10T12:09:12.548Z,85.96
2018-08-10T12:10:12.450Z,89.49
2018-08-10T12:11:12.309Z,88.54
2018-08-10T12:12:12.179Z,91.02
2018-08-10T12:13:12.058Z,91.02
2018-08-10T12:14:11.935Z,91.11
2018-08-10T12:15:11.814Z,82.32
2018-08-10T12:16:11.690Z,87.20
2018-08-10T12:17:11.570Z,88.73
2018-08-10T12:18:11.562Z,91.78
2018-08-10T12:19:11.489Z,87.15
2018-08-10T12:20:11.213Z,87.15
2018-08-10T12:21:11.153Z,80.19
2018-08-10T12:22:10.951Z,76.18
2018-08-10T12:23:10.829Z,77.17
2018-08-10T12:24:10.709Z,77.84
2018-08-10T12:25:10.663Z,78.89
2018-08-10T12:26:10.461Z,97.80
2018-08-10T12:27:10.342Z,95.41
2018-08-10T12:28:10.224Z,96.08
2018-08-10T12:29:10.128Z,91.97
2018-08-10T12:30:09.985Z,87.48
2018-08-10T12:31:09.847Z,85.67
2018-08-10T12:32:09.876Z,66.89
2018-08-10T12:33:09.880Z,67.75
2018-08-10T12:34:09.837Z,81.22
2018-08-10T12:35:09.357Z,71.47
2018-08-10T12:36:10.167Z,71.38
2018-08-10T12:37:09.113Z,79.12
2018-08-10T12:38:08.991Z,79.88
2018-08-10T12:39:11.585Z,82.03
2018-08-10T12:40:08.751Z,87.19
2018-08-10T12:41:08.623Z,84.52
2018-08-10T12:42:08.499Z,86.00
2018-08-10T12:43:09.755Z,76.73
2018-08-10T12:44:08.262Z,69.37
2018-08-10T12:45:08.133Z,62.49
2018-08-10T12:46:08.011Z,57.04
2018-08-10T12:47:07.892Z,58.95
2018-08-10T12:48:07.852Z,66.13
2018-08-10T12:49:07.652Z,72.72
2018-08-10T12:50:07.625Z,77.21
2018-08-10T12:51:07.401Z,75.30
2018-08-10T12:52:07.277Z,68.10
2018-08-10T12:53:07.155Z,73.63
2018-08-10T12:54:07.036Z,77.65
2018-08-10T12:55:06.914Z,76.21